createdAt,value
2022-09-03T00:01:16.760Z,1.07
2022-09-03T00:06:23.725Z,0.95
2022-09-03T00:11:30.811Z,1.34
2022-09-03T00:16:37.842Z,1.10
2022-09-03T00:21:44.993Z,1.24
2022-09-03T00:26:51.975Z,1.06
2022-09-03T00:31:59.152Z,1.17
2022-09-03T00:37:06.180Z,1.03
2022-09-03T00:42:13.021Z,1.23
2022-09-03T00:47:20.002Z,1.05
2022-09-03T00:52:28.806Z,1.17
2022-09-03T00:57:33.849Z,1.33
2022-09-03T01:02:41.170Z,1.21
2022-09-03T01:07:48.116Z,1.15
2022-09-03T01:12:55.256Z,1.12
2022-09-03T01:18:02.237Z,0.77
2022-09-03T01:23:09.445Z,0.80
2022-09-03T01:28:16.413Z,0.95
2022-09-03T01:33:23.562Z,0.98
2022-09-03T01:38:30.560Z,1.00
2022-09-03T01:43:40.967Z,0.98
2022-09-03T01:48:44.279Z,0.83
2022-09-03T01:53:51.327Z,0.76
2022-09-03T01:58:58.337Z,1.07
2022-09-03T02:04:05.436Z,0.94
2022-09-03T02:09:12.481Z,0.96
2022-09-03T02:14:19.515Z,0.89
2022-09-03T02:19:26.536Z,0.72
2022-09-03T02:24:33.506Z,1.07
2022-09-03T02:29:40.531Z,1.18
2022-09-03T02:34:47.501Z,1.04
2022-09-03T02:39:54.656Z,0.97
2022-09-03T02:45:01.573Z,1.30
2022-09-03T02:50:08.557Z,1.20
2022-09-03T02:55:15.582Z,0.97
2022-09-03T03:00:22.629Z,1.19
2022-09-03T03:05:29.622Z,0.86
2022-09-03T03:10:36.741Z,1.08
2022-09-03T03:15:43.748Z,0.92
2022-09-03T03:20:51.163Z,1.24
2022-09-03T03:25:58.120Z,1.05
2022-09-03T03:31:05.440Z,1.02
2022-09-03T03:36:12.388Z,1.19
2022-09-03T03:41:19.828Z,1.06
2022-09-03T03:46:26.960Z,1.09
2022-09-03T03:51:34.092Z,1.11
2022-09-03T03:56:41.116Z,1.20
2022-09-03T04:01:48.304Z,1.17
2022-09-03T04:06:55.381Z,1.08
2022-09-03T04:12:03.013Z,0.96
2022-09-03T04:17:10.046Z,0.86
2022-09-03T04:22:17.171Z,1.27
2022-09-03T04:27:24.128Z,1.11
2022-09-03T04:32:31.160Z,1.29
2022-09-03T04:37:38.138Z,1.05
2022-09-03T04:42:45.289Z,1.28
2022-09-03T04:47:52.302Z,1.19
2022-09-03T04:52:59.447Z,1.00
2022-09-03T04:58:06.454Z,1.15
2022-09-03T05:03:13.592Z,1.06
2022-09-03T05:08:20.616Z,1.22
2022-09-03T05:13:27.661Z,1.29
2022-09-03T05:18:34.664Z,1.42
2022-09-03T05:23:41.726Z,1.25
2022-09-03T05:28:50.297Z,1.15
2022-09-03T05:33:57.322Z,1.34
2022-09-03T05:39:04.389Z,1.06
2022-09-03T05:44:11.548Z,1.16
2022-09-03T05:49:18.620Z,1.47
2022-09-03T05:54:25.785Z,1.36
2022-09-03T05:59:32.821Z,1.25
2022-09-03T06:04:40.046Z,1.16
2022-09-03T06:09:47.030Z,1.51
2022-09-03T06:14:54.227Z,1.06
2022-09-03T06:20:00.759Z,1.01
2022-09-03T06:25:07.806Z,1.24
2022-09-03T06:30:14.916Z,1.09
2022-09-03T06:35:21.887Z,1.30
2022-09-03T06:40:29.093Z,1.12
2022-09-03T06:45:36.095Z,1.27
2022-09-03T06:50:43.235Z,1.32
2022-09-03T06:55:50.362Z,1.31
2022-09-03T07:00:57.664Z,1.12
2022-09-03T07:06:04.548Z,1.14
2022-09-03T07:11:11.549Z,1.19
2022-09-03T07:16:18.629Z,1.12
2022-09-03T07:21:25.843Z,1.05
2022-09-03T07:26:32.972Z,1.16
2022-09-03T07:31:40.282Z,1.21
2022-09-03T07:36:48.917Z,1.02
2022-09-03T07:41:53.740Z,0.91
2022-09-03T07:47:00.865Z,1.05
2022-09-03T07:52:07.762Z,1.36
2022-09-03T07:57:14.416Z,0.98
2022-09-03T08:02:21.419Z,1.09
2022-09-03T08:07:28.636Z,1.25
2022-09-03T08:12:35.667Z,1.08
2022-09-03T08:17:42.807Z,1.05
2022-09-03T08:22:49.882Z,0.92
2022-09-03T08:27:57.104Z,1.01
2022-09-03T08:33:04.119Z,1.11
2022-09-03T08:38:11.389Z,1.07
2022-09-03T08:43:18.409Z,1.04
2022-09-03T08:48:26.154Z,1.06
2022-09-03T08:53:31.988Z,1.09
2022-09-03T08:58:39.183Z,1.13
2022-09-03T09:03:46.167Z,1.24
2022-09-03T09:08:53.149Z,1.27
2022-09-03T09:14:00.126Z,1.29
2022-09-03T09:19:07.298Z,1.45
2022-09-03T09:24:14.286Z,1.31
2022-09-03T09:29:21.454Z,1.47
2022-09-03T09:34:28.457Z,1.31
2022-09-03T09:39:35.707Z,1.40
2022-09-03T09:44:42.760Z,1.51
2022-09-03T09:49:49.772Z,1.46
2022-09-03T09:54:58.221Z,1.38
2022-09-03T10:00:03.986Z,1.32
2022-09-03T10:05:11.007Z,1.52
2022-09-03T10:10:18.426Z,3.52
2022-09-03T10:15:24.988Z,2.33
2022-09-03T10:20:32.108Z,1.77
2022-09-03T10:25:39.162Z,1.64
2022-09-03T10:30:46.412Z,1.54
2022-09-03T10:35:53.338Z,1.77
2022-09-03T10:41:00.499Z,1.67
2022-09-03T10:46:23.323Z,1.59
2022-09-03T10:51:14.686Z,1.63
2022-09-03T10:56:21.693Z,1.76
2022-09-03T11:01:28.921Z,1.58
2022-09-03T11:06:35.878Z,1.38
2022-09-03T11:11:43.049Z,1.35
2022-09-03T11:16:50.087Z,1.57
2022-09-03T11:21:57.075Z,1.52
2022-09-03T11:27:04.135Z,1.63
2022-09-03T11:32:11.157Z,1.61
2022-09-03T11:37:18.405Z,1.52
2022-09-03T11:42:25.426Z,1.69
2022-09-03T11:47:32.493Z,1.80
2022-09-03T11:52:39.520Z,1.76
2022-09-03T11:57:46.740Z,1.93
2022-09-03T12:02:58.601Z,1.95
2022-09-03T12:08:02.361Z,2.38
2022-09-03T12:13:07.065Z,1.97
2022-09-03T12:18:14.131Z,2.11
2022-09-03T12:23:21.151Z,2.20
2022-09-03T12:28:28.172Z,1.95
2022-09-03T12:33:35.164Z,1.78
2022-09-03T12:39:10.002Z,1.61
2022-09-03T12:43:50.391Z,1.63
2022-09-03T12:54:02.066Z,1.71
2022-09-03T12:59:09.167Z,1.49
2022-09-03T13:04:16.175Z,1.35
2022-09-03T13:09:24.701Z,1.34
2022-09-03T13:14:31.777Z,1.12
2022-09-03T13:19:39.315Z,1.12
2022-09-03T13:24:46.378Z,1.31
2022-09-03T13:29:56.538Z,1.15
2022-09-03T13:34:53.600Z,1.30
2022-09-03T13:40:03.839Z,1.14
2022-09-03T13:45:00.748Z,1.22
2022-09-03T13:50:17.259Z,1.22
2022-09-03T13:55:14.264Z,1.07
2022-09-03T14:00:25.694Z,1.08
2022-09-03T14:05:22.754Z,1.08
2022-09-03T14:10:33.702Z,1.41
2022-09-03T14:15:30.726Z,1.25
2022-09-03T14:20:42.151Z,1.36
2022-09-03T14:25:39.107Z,1.24
2022-09-03T14:30:47.885Z,1.31
2022-09-03T14:35:54.441Z,1.34
2022-09-03T14:41:01.592Z,1.14
2022-09-03T14:46:08.637Z,1.34
2022-09-03T14:51:19.647Z,1.11
2022-09-03T14:56:22.635Z,1.20
2022-09-03T15:01:29.733Z,1.92
2022-09-03T15:06:37.610Z,1.43
2022-09-03T15:11:44.717Z,1.35
2022-09-03T15:16:52.492Z,1.39
2022-09-03T15:21:59.525Z,1.29
2022-09-03T15:27:06.778Z,1.10
2022-09-03T15:32:14.053Z,1.13
2022-09-03T15:37:20.564Z,1.24
2022-09-03T15:42:27.761Z,1.28
2022-09-03T15:47:35.256Z,1.10
2022-09-03T15:52:41.607Z,1.06
2022-09-03T15:57:49.023Z,1.22
2022-09-03T16:02:56.941Z,1.12
2022-09-03T16:08:04.000Z,1.22
2022-09-03T16:13:11.919Z,1.16
2022-09-03T16:18:18.667Z,1.38
2022-09-03T16:23:25.847Z,1.36
2022-09-03T16:28:38.351Z,1.44
2022-09-03T16:33:35.475Z,1.30
2022-09-03T16:38:42.608Z,1.52
2022-09-03T16:43:49.682Z,1.28
2022-09-03T16:48:56.861Z,1.23
2022-09-03T16:54:03.857Z,1.41
2022-09-03T16:59:12.253Z,1.44
2022-09-03T17:04:19.297Z,1.56
2022-09-03T17:09:26.437Z,1.72
2022-09-03T17:14:33.447Z,1.74
2022-09-03T17:19:42.342Z,1.41
2022-09-03T17:24:49.402Z,1.32
2022-09-03T17:29:56.621Z,1.34
2022-09-03T17:35:03.633Z,1.40
2022-09-03T17:40:10.735Z,1.54
2022-09-03T17:45:17.775Z,1.46
2022-09-03T17:50:24.985Z,1.52
2022-09-03T17:55:32.041Z,1.52
2022-09-03T18:00:39.123Z,1.64
2022-09-03T18:05:46.256Z,1.62
2022-09-03T18:10:53.253Z,1.54
2022-09-03T18:16:00.580Z,1.68
2022-09-03T18:21:24.048Z,1.67
2022-09-03T18:26:14.380Z,1.58
2022-09-03T18:31:22.416Z,1.80
2022-09-03T18:36:29.626Z,1.76
2022-09-03T18:41:36.683Z,1.59
2022-09-03T18:48:00.856Z,1.75
2022-09-03T18:51:50.612Z,1.93
2022-09-03T18:56:57.817Z,1.85
2022-09-03T19:02:05.024Z,1.79
2022-09-03T19:07:13.370Z,1.78
2022-09-03T19:12:20.597Z,4.41
2022-09-03T19:17:27.788Z,2.99
2022-09-03T19:22:34.822Z,2.58
2022-09-03T19:27:55.681Z,2.28
2022-09-03T19:32:48.711Z,2.35
2022-09-03T19:37:55.973Z,2.14
2022-09-03T19:43:03.016Z,2.18
2022-09-03T19:48:10.132Z,1.75
2022-09-03T19:53:17.241Z,2.03
2022-09-03T19:58:41.946Z,2.35
2022-09-03T20:03:31.088Z,2.02
2022-09-03T20:08:38.244Z,2.08
2022-09-03T20:13:45.369Z,2.02
2022-09-03T20:18:52.698Z,1.99
2022-09-03T20:23:59.691Z,1.76
2022-09-03T20:29:06.892Z,2.01
2022-09-03T20:34:13.886Z,2.12
2022-09-03T20:39:21.141Z,2.33
2022-09-03T20:44:28.103Z,2.06
2022-09-03T20:49:35.187Z,2.15
2022-09-03T20:54:42.531Z,2.12
2022-09-03T20:59:49.396Z,2.26
2022-09-03T21:04:56.395Z,2.26
2022-09-03T21:10:03.601Z,2.29
2022-09-03T21:15:10.675Z,2.13
2022-09-03T21:20:17.866Z,2.08
2022-09-03T21:25:24.884Z,1.99
2022-09-03T21:30:32.018Z,1.99
2022-09-03T21:35:38.973Z,2.24
2022-09-03T21:40:46.955Z,2.57
2022-09-03T21:45:52.748Z,2.21
2022-09-03T21:50:59.821Z,2.24
2022-09-03T21:56:06.824Z,2.37
2022-09-03T22:01:13.984Z,2.69
2022-09-03T22:06:25.616Z,2.45
2022-09-03T22:11:27.726Z,2.27
2022-09-03T22:16:34.786Z,2.27
2022-09-03T22:21:41.930Z,2.29
2022-09-03T22:26:48.927Z,2.32
2022-09-03T22:31:56.030Z,2.30
2022-09-03T22:37:03.053Z,2.76
2022-09-03T22:42:10.376Z,2.52
2022-09-03T22:47:17.204Z,2.88
2022-09-03T22:52:24.391Z,2.81
2022-09-03T22:57:31.391Z,2.27
2022-09-03T23:02:38.550Z,2.56
2022-09-03T23:07:45.580Z,2.47
2022-09-03T23:12:52.762Z,2.65
2022-09-03T23:17:59.806Z,2.93
2022-09-03T23:23:06.993Z,2.58
2022-09-03T23:28:13.989Z,2.63
2022-09-03T23:33:21.151Z,2.58
2022-09-03T23:38:28.127Z,2.95
2022-09-03T23:43:35.271Z,3.09
2022-09-03T23:48:42.478Z,2.75
2022-09-03T23:53:49.624Z,3.05
2022-09-03T23:58:56.579Z,2.94
